sensor_id;sensor_type;location;lat;lon;timestamp;pressure;altitude;pressure_sealevel;temperature;humidity
79127;BME280;68528;48.814;8.904;2023-06-14T00:01:06;95939.00;;;11.87;56.34
79127;BME280;68528;48.814;8.904;2023-06-14T00:03:34;95913.00;;;11.66;56.16
79127;BME280;68528;48.814;8.904;2023-06-14T00:06:00;95905.47;;;11.56;57.07
79127;BME280;68528;48.814;8.904;2023-06-14T00:08:27;95914.53;;;11.64;56.77
79127;BME280;68528;48.814;8.904;2023-06-14T00:10:55;95905.03;;;11.47;56.92
79127;BME280;68528;48.814;8.904;2023-06-14T00:17:22;95916.28;;;11.32;57.50
79127;BME280;68528;48.814;8.904;2023-06-14T00:19:48;95890.81;;;11.28;57.54
79127;BME280;68528;48.814;8.904;2023-06-14T00:22:19;95880.59;;;11.25;57.84
79127;BME280;68528;48.814;8.904;2023-06-14T00:24:45;95869.44;;;11.00;57.98
79127;BME280;68528;48.814;8.904;2023-06-14T00:27:13;95894.44;;;11.46;56.95
79127;BME280;68528;48.814;8.904;2023-06-14T00:36:45;95906.00;;;11.22;58.91
79127;BME280;68528;48.814;8.904;2023-06-14T00:39:20;95892.22;;;11.11;59.17
79127;BME280;68528;48.814;8.904;2023-06-14T00:41:48;95911.88;;;11.20;59.18
79127;BME280;68528;48.814;8.904;2023-06-14T00:44:18;95895.50;;;10.83;59.48
79127;BME280;68528;48.814;8.904;2023-06-14T00:47:08;95896.59;;;10.75;59.11
79127;BME280;68528;48.814;8.904;2023-06-14T00:53:39;95935.56;;;10.98;58.25
79127;BME280;68528;48.814;8.904;2023-06-14T00:56:07;95922.53;;;10.85;58.11
79127;BME280;68528;48.814;8.904;2023-06-14T00:58:33;95904.72;;;10.65;57.84
79127;BME280;68528;48.814;8.904;2023-06-14T01:01:02;95897.19;;;10.55;59.12
79127;BME280;68528;48.814;8.904;2023-06-14T01:03:48;95914.44;;;10.59;57.95
79127;BME280;68528;48.814;8.904;2023-06-14T01:13:36;95932.09;;;11.01;58.45
79127;BME280;68528;48.814;8.904;2023-06-14T01:16:11;95916.25;;;10.81;58.60
79127;BME280;68528;48.814;8.904;2023-06-14T01:18:54;95898.00;;;10.55;59.61
79127;BME280;68528;48.814;8.904;2023-06-14T01:21:33;95917.94;;;10.56;59.96
79127;BME280;68528;48.814;8.904;2023-06-14T01:24:07;95907.91;;;10.34;59.87
79127;BME280;68528;48.814;8.904;2023-06-14T01:30:02;95923.06;;;10.61;59.24
79127;BME280;68528;48.814;8.904;2023-06-14T01:32:33;95929.53;;;10.79;59.55
79127;BME280;68528;48.814;8.904;2023-06-14T01:35:01;95901.56;;;10.59;60.14
79127;BME280;68528;48.814;8.904;2023-06-14T01:37:28;95914.56;;;10.73;59.64
79127;BME280;68528;48.814;8.904;2023-06-14T01:39:55;95914.34;;;10.48;60.84
79127;BME280;68528;48.814;8.904;2023-06-14T01:42:26;95919.56;;;10.27;60.97
79127;BME280;68528;48.814;8.904;2023-06-14T01:52:00;95941.03;;;10.25;61.86
79127;BME280;68528;48.814;8.904;2023-06-14T01:54:54;95936.88;;;10.35;60.82
79127;BME280;68528;48.814;8.904;2023-06-14T01:57:19;95932.84;;;10.25;61.62
79127;BME280;68528;48.814;8.904;2023-06-14T01:59:45;95918.63;;;10.12;62.01
79127;BME280;68528;48.814;8.904;2023-06-14T02:09:49;95943.75;;;9.95;63.27
79127;BME280;68528;48.814;8.904;2023-06-14T02:12:35;95947.28;;;9.96;63.47
79127;BME280;68528;48.814;8.904;2023-06-14T02:15:07;95947.19;;;9.89;64.44
79127;BME280;68528;48.814;8.904;2023-06-14T02:17:44;95921.09;;;9.95;63.50
79127;BME280;68528;48.814;8.904;2023-06-14T02:20:37;95905.69;;;9.80;64.00
79127;BME280;68528;48.814;8.904;2023-06-14T02:24:14;95932.31;;;9.86;63.80
79127;BME280;68528;48.814;8.904;2023-06-14T02:27:25;95945.25;;;9.89;64.68
79127;BME280;68528;48.814;8.904;2023-06-14T02:29:56;95922.41;;;9.75;65.04
79127;BME280;68528;48.814;8.904;2023-06-14T02:32:22;95929.25;;;9.91;64.28
79127;BME280;68528;48.814;8.904;2023-06-14T02:34:59;95911.88;;;9.77;64.08
79127;BME280;68528;48.814;8.904;2023-06-14T02:44:39;95922.06;;;9.50;65.46
79127;BME280;68528;48.814;8.904;2023-06-14T02:50:14;95933.97;;;9.38;66.79
79127;BME280;68528;48.814;8.904;2023-06-14T02:52:43;95932.50;;;9.44;66.40
79127;BME280;68528;48.814;8.904;2023-06-14T02:55:21;95928.94;;;9.14;67.57
79127;BME280;68528;48.814;8.904;2023-06-14T02:58:16;95943.91;;;9.50;65.75
79127;BME280;68528;48.814;8.904;2023-06-14T03:01:52;95928.50;;;9.38;66.93
79127;BME280;68528;48.814;8.904;2023-06-14T03:04:17;95917.38;;;9.24;67.01
79127;BME280;68528;48.814;8.904;2023-06-14T03:06:43;95910.44;;;9.30;66.38
79127;BME280;68528;48.814;8.904;2023-06-14T03:09:09;95936.16;;;9.29;66.31
79127;BME280;68528;48.814;8.904;2023-06-14T03:11:39;95940.19;;;9.35;66.32
79127;BME280;68528;48.814;8.904;2023-06-14T03:14:10;95911.84;;;9.21;66.29
79127;BME280;68528;48.814;8.904;2023-06-14T03:16:57;95934.59;;;9.28;66.81
79127;BME280;68528;48.814;8.904;2023-06-14T03:20:11;95947.00;;;9.22;66.88
79127;BME280;68528;48.814;8.904;2023-06-14T03:22:39;95941.13;;;9.20;66.62
79127;BME280;68528;48.814;8.904;2023-06-14T03:25:06;95921.75;;;9.06;66.22
79127;BME280;68528;48.814;8.904;2023-06-14T03:27:51;95928.00;;;9.07;67.09
79127;BME280;68528;48.814;8.904;2023-06-14T03:30:16;95957.38;;;9.13;67.09
79127;BME280;68528;48.814;8.904;2023-06-14T03:32:44;95929.09;;;9.02;67.18
79127;BME280;68528;48.814;8.904;2023-06-14T03:39:07;95961.00;;;9.21;68.21
79127;BME280;68528;48.814;8.904;2023-06-14T03:41:54;95950.78;;;9.14;68.18
79127;BME280;68528;48.814;8.904;2023-06-14T03:44:22;95953.81;;;9.09;67.70
79127;BME280;68528;48.814;8.904;2023-06-14T03:46:53;95960.53;;;9.15;67.92
79127;BME280;68528;48.814;8.904;2023-06-14T03:49:19;95924.00;;;9.01;67.01
79127;BME280;68528;48.814;8.904;2023-06-14T03:51:45;95948.88;;;8.96;67.28
79127;BME280;68528;48.814;8.904;2023-06-14T03:54:34;95926.75;;;8.78;67.88
79127;BME280;68528;48.814;8.904;2023-06-14T04:01:28;95982.38;;;9.15;67.36
79127;BME280;68528;48.814;8.904;2023-06-14T04:03:59;95971.16;;;9.20;67.62
79127;BME280;68528;48.814;8.904;2023-06-14T04:06:27;95957.81;;;9.15;67.15
79127;BME280;68528;48.814;8.904;2023-06-14T04:08:58;95929.53;;;9.04;67.29
79127;BME280;68528;48.814;8.904;2023-06-14T04:11:47;95963.91;;;9.31;67.58
79127;BME280;68528;48.814;8.904;2023-06-14T04:14:55;95997.19;;;9.63;67.04
79127;BME280;68528;48.814;8.904;2023-06-14T04:17:24;95961.25;;;9.35;67.55
79127;BME280;68528;48.814;8.904;2023-06-14T04:19:50;96001.69;;;9.75;67.28
79127;BME280;68528;48.814;8.904;2023-06-14T04:22:15;95987.59;;;9.73;66.74
79127;BME280;68528;48.814;8.904;2023-06-14T04:24:46;95981.53;;;9.86;66.04
79127;BME280;68528;48.814;8.904;2023-06-14T04:27:14;95989.56;;;10.02;65.97
79127;BME280;68528;48.814;8.904;2023-06-14T04:30:10;96009.47;;;10.25;65.90
79127;BME280;68528;48.814;8.904;2023-06-14T04:35:57;95971.84;;;10.18;66.50
79127;BME280;68528;48.814;8.904;2023-06-14T04:38:27;95978.00;;;10.42;66.37
79127;BME280;68528;48.814;8.904;2023-06-14T04:40:56;95952.00;;;10.25;66.72
79127;BME280;68528;48.814;8.904;2023-06-14T04:43:38;95969.16;;;10.55;66.27
79127;BME280;68528;48.814;8.904;2023-06-14T04:46:06;95987.50;;;10.88;65.69
79127;BME280;68528;48.814;8.904;2023-06-14T04:52:13;95972.97;;;11.24;64.32
79127;BME280;68528;48.814;8.904;2023-06-14T04:54:46;95990.97;;;11.65;63.55
79127;BME280;68528;48.814;8.904;2023-06-14T04:57:14;95998.66;;;12.00;61.76
79127;BME280;68528;48.814;8.904;2023-06-14T04:59:45;95980.75;;;12.20;59.07
79127;BME280;68528;48.814;8.904;2023-06-14T05:02:13;96010.03;;;12.78;57.48
79127;BME280;68528;48.814;8.904;2023-06-14T05:04:42;95981.41;;;12.86;58.72
79127;BME280;68528;48.814;8.904;2023-06-14T05:17:45;96018.84;;;14.17;52.28
79127;BME280;68528;48.814;8.904;2023-06-14T05:20:13;96014.84;;;14.43;50.82
79127;BME280;68528;48.814;8.904;2023-06-14T05:22:38;95992.00;;;14.53;50.81
79127;BME280;68528;48.814;8.904;2023-06-14T05:25:04;96014.69;;;14.85;50.93
79127;BME280;68528;48.814;8.904;2023-06-14T05:31:39;95969.56;;;15.23;48.88
79127;BME280;68528;48.814;8.904;2023-06-14T05:37:12;96027.06;;;15.90;47.45
79127;BME280;68528;48.814;8.904;2023-06-14T05:39:57;96003.56;;;15.68;47.42
79127;BME280;68528;48.814;8.904;2023-06-14T05:46:40;96040.97;;;15.76;47.28
79127;BME280;68528;48.814;8.904;2023-06-14T05:49:39;96044.75;;;16.37;46.90
79127;BME280;68528;48.814;8.904;2023-06-14T05:52:16;96047.81;;;16.49;46.25
79127;BME280;68528;48.814;8.904;2023-06-14T05:54:41;96018.97;;;16.10;46.87
79127;BME280;68528;48.814;8.904;2023-06-14T05:59:43;95996.66;;;15.94;47.24
79127;BME280;68528;48.814;8.904;2023-06-14T06:05:37;95995.00;;;16.78;45.78
79127;BME280;68528;48.814;8.904;2023-06-14T06:08:05;96046.81;;;16.29;47.42
79127;BME280;68528;48.814;8.904;2023-06-14T06:10:35;96040.28;;;17.21;44.48
79127;BME280;68528;48.814;8.904;2023-06-14T06:13:01;96017.50;;;17.10;45.27
79127;BME280;68528;48.814;8.904;2023-06-14T06:15:26;96000.31;;;17.49;44.34
79127;BME280;68528;48.814;8.904;2023-06-14T06:17:52;96011.31;;;18.52;41.95
79127;BME280;68528;48.814;8.904;2023-06-14T06:20:41;96059.41;;;17.69;44.88
79127;BME280;68528;48.814;8.904;2023-06-14T06:23:34;96059.47;;;18.61;41.61
79127;BME280;68528;48.814;8.904;2023-06-14T06:26:01;96056.16;;;18.90;42.39
79127;BME280;68528;48.814;8.904;2023-06-14T06:28:29;96057.72;;;19.30;41.47
79127;BME280;68528;48.814;8.904;2023-06-14T06:31:01;96020.16;;;18.66;41.72
79127;BME280;68528;48.814;8.904;2023-06-14T06:33:26;96033.59;;;18.88;43.55
79127;BME280;68528;48.814;8.904;2023-06-14T06:35:54;96010.69;;;19.58;39.12
79127;BME280;68528;48.814;8.904;2023-06-14T10:45:27;96152.81;;;21.50;32.91
79127;BME280;68528;48.814;8.904;2023-06-14T12:06:14;96113.97;;;25.58;26.27
79127;BME280;68528;48.814;8.904;2023-06-14T12:09:08;96144.78;;;25.85;25.93
79127;BME280;68528;48.814;8.904;2023-06-14T12:12:12;96122.91;;;24.62;25.45
79127;BME280;68528;48.814;8.904;2023-06-14T12:15:03;96151.75;;;23.11;29.70
79127;BME280;68528;48.814;8.904;2023-06-14T12:17:32;96146.94;;;24.11;27.79
79127;BME280;68528;48.814;8.904;2023-06-14T12:19:58;96141.22;;;26.44;25.59
79127;BME280;68528;48.814;8.904;2023-06-14T12:22:27;96134.47;;;26.18;26.17
79127;BME280;68528;48.814;8.904;2023-06-14T12:24:53;96131.03;;;26.05;23.86
79127;BME280;68528;48.814;8.904;2023-06-14T12:33:44;96101.41;;;22.68;29.67
79127;BME280;68528;48.814;8.904;2023-06-14T12:36:11;96131.34;;;21.63;31.65
79127;BME280;68528;48.814;8.904;2023-06-14T12:38:37;96146.16;;;21.89;31.87
79127;BME280;68528;48.814;8.904;2023-06-14T12:41:02;96138.13;;;22.67;28.99
79127;BME280;68528;48.814;8.904;2023-06-14T12:43:50;96128.25;;;24.78;27.64
79127;BME280;68528;48.814;8.904;2023-06-14T12:53:43;96102.66;;;26.54;22.96
79127;BME280;68528;48.814;8.904;2023-06-14T12:56:59;96140.00;;;25.49;23.53
79127;BME280;68528;48.814;8.904;2023-06-14T13:10:47;96096.66;;;26.37;23.74
79127;BME280;68528;48.814;8.904;2023-06-14T13:13:14;96110.56;;;27.12;22.64
79127;BME280;68528;48.814;8.904;2023-06-14T13:15:40;96131.69;;;24.82;26.11
79127;BME280;68528;48.814;8.904;2023-06-14T13:18:07;96135.44;;;24.49;25.46
79127;BME280;68528;48.814;8.904;2023-06-14T13:20:32;96142.41;;;24.75;25.96
79127;BME280;68528;48.814;8.904;2023-06-14T13:26:38;96125.34;;;25.27;25.16
79127;BME280;68528;48.814;8.904;2023-06-14T13:29:03;96136.25;;;24.58;24.53
79127;BME280;68528;48.814;8.904;2023-06-14T13:31:29;96123.91;;;25.95;25.05
79127;BME280;68528;48.814;8.904;2023-06-14T13:33:55;96120.34;;;26.36;22.25
79127;BME280;68528;48.814;8.904;2023-06-14T13:36:21;96121.78;;;25.63;23.16
79127;BME280;68528;48.814;8.904;2023-06-14T13:38:46;96110.53;;;27.59;20.91
79127;BME280;68528;48.814;8.904;2023-06-14T13:41:12;96154.09;;;25.01;25.53
79127;BME280;68528;48.814;8.904;2023-06-14T14:07:40;96092.34;;;25.40;26.45
79127;BME280;68528;48.814;8.904;2023-06-14T14:10:09;96119.16;;;26.94;23.67
79127;BME280;68528;48.814;8.904;2023-06-14T14:15:49;96119.34;;;25.98;24.50
79127;BME280;68528;48.814;8.904;2023-06-14T14:18:17;96123.66;;;25.57;24.32
79127;BME280;68528;48.814;8.904;2023-06-14T14:21:21;96133.16;;;24.65;25.70
79127;BME280;68528;48.814;8.904;2023-06-14T14:24:11;96102.31;;;25.59;27.17
79127;BME280;68528;48.814;8.904;2023-06-14T14:26:41;96108.84;;;25.20;24.16
79127;BME280;68528;48.814;8.904;2023-06-14T14:29:07;96105.41;;;24.98;26.95
79127;BME280;68528;48.814;8.904;2023-06-14T14:31:33;96121.78;;;26.65;23.07
79127;BME280;68528;48.814;8.904;2023-06-14T14:34:02;96120.88;;;24.23;26.18
79127;BME280;68528;48.814;8.904;2023-06-14T14:42:58;96087.06;;;26.20;23.83
79127;BME280;68528;48.814;8.904;2023-06-14T14:45:23;96139.88;;;25.44;24.81
79127;BME280;68528;48.814;8.904;2023-06-14T14:47:51;96133.88;;;24.08;25.43
79127;BME280;68528;48.814;8.904;2023-06-14T14:50:16;96102.69;;;25.94;24.10
79127;BME280;68528;48.814;8.904;2023-06-14T14:52:42;96115.56;;;25.59;25.86
79127;BME280;68528;48.814;8.904;2023-06-14T14:55:16;96118.88;;;23.71;28.45
79127;BME280;68528;48.814;8.904;2023-06-14T15:02:27;96082.22;;;25.61;23.31
79127;BME280;68528;48.814;8.904;2023-06-14T15:04:59;96103.69;;;26.33;23.25
79127;BME280;68528;48.814;8.904;2023-06-14T15:07:28;96099.22;;;24.54;25.79
79127;BME280;68528;48.814;8.904;2023-06-14T15:09:54;96127.66;;;25.02;25.48
79127;BME280;68528;48.814;8.904;2023-06-14T15:12:56;96143.09;;;25.24;24.85
79127;BME280;68528;48.814;8.904;2023-06-14T15:16:22;96095.63;;;25.57;24.47
79127;BME280;68528;48.814;8.904;2023-06-14T15:18:59;96123.31;;;25.64;25.07
79127;BME280;68528;48.814;8.904;2023-06-14T15:21:27;96131.72;;;25.10;25.64
79127;BME280;68528;48.814;8.904;2023-06-14T15:23:55;96110.84;;;24.83;25.94
79127;BME280;68528;48.814;8.904;2023-06-14T15:26:21;96131.09;;;24.48;26.79
79127;BME280;68528;48.814;8.904;2023-06-14T15:28:49;96082.53;;;25.09;25.93
79127;BME280;68528;48.814;8.904;2023-06-14T15:37:26;96111.22;;;25.49;26.03
79127;BME280;68528;48.814;8.904;2023-06-14T15:39:52;96129.09;;;25.69;25.91
79127;BME280;68528;48.814;8.904;2023-06-14T15:42:17;96109.00;;;25.62;26.09
79127;BME280;68528;48.814;8.904;2023-06-14T15:44:43;96094.03;;;25.20;27.10
79127;BME280;68528;48.814;8.904;2023-06-14T15:47:08;96119.34;;;24.71;27.41
79127;BME280;68528;48.814;8.904;2023-06-14T15:49:35;96125.78;;;24.41;26.53
79127;BME280;68528;48.814;8.904;2023-06-14T15:52:00;96117.84;;;23.00;28.71
79127;BME280;68528;48.814;8.904;2023-06-14T15:54:27;96121.94;;;23.42;28.43
79127;BME280;68528;48.814;8.904;2023-06-14T15:56:58;96124.78;;;23.95;27.49
79127;BME280;68528;48.814;8.904;2023-06-14T15:59:27;96125.19;;;25.22;26.21
79127;BME280;68528;48.814;8.904;2023-06-14T16:01:54;96124.25;;;24.49;26.99
79127;BME280;68528;48.814;8.904;2023-06-14T16:04:27;96125.81;;;25.80;25.78
79127;BME280;68528;48.814;8.904;2023-06-14T16:07:03;96131.06;;;24.78;27.38
79127;BME280;68528;48.814;8.904;2023-06-14T16:09:36;96129.53;;;25.05;27.15
79127;BME280;68528;48.814;8.904;2023-06-14T16:12:27;96092.91;;;24.23;28.30
79127;BME280;68528;48.814;8.904;2023-06-14T16:14:57;96112.31;;;24.17;27.04
79127;BME280;68528;48.814;8.904;2023-06-14T16:17:22;96126.88;;;24.43;26.86
79127;BME280;68528;48.814;8.904;2023-06-14T16:19:47;96110.31;;;24.18;27.12
79127;BME280;68528;48.814;8.904;2023-06-14T16:22:13;96133.97;;;24.26;27.22
79127;BME280;68528;48.814;8.904;2023-06-14T16:24:38;96117.97;;;24.75;28.83
79127;BME280;68528;48.814;8.904;2023-06-14T16:27:17;96100.72;;;24.77;26.46
79127;BME280;68528;48.814;8.904;2023-06-14T16:30:15;96108.97;;;24.01;28.34
79127;BME280;68528;48.814;8.904;2023-06-14T16:32:44;96109.53;;;23.44;28.72
79127;BME280;68528;48.814;8.904;2023-06-14T16:35:09;96128.47;;;23.27;30.43
79127;BME280;68528;48.814;8.904;2023-06-14T16:37:35;96123.59;;;23.18;29.35
79127;BME280;68528;48.814;8.904;2023-06-14T16:40:00;96131.69;;;23.60;29.34
79127;BME280;68528;48.814;8.904;2023-06-14T16:42:26;96121.75;;;23.03;29.30
79127;BME280;68528;48.814;8.904;2023-06-14T16:44:54;96122.16;;;23.14;29.57
79127;BME280;68528;48.814;8.904;2023-06-14T16:50:56;96130.22;;;24.20;28.07
79127;BME280;68528;48.814;8.904;2023-06-14T16:53:22;96142.25;;;24.08;28.65
79127;BME280;68528;48.814;8.904;2023-06-14T16:55:48;96139.97;;;23.29;29.81
79127;BME280;68528;48.814;8.904;2023-06-14T16:58:16;96144.03;;;23.15;29.46
79127;BME280;68528;48.814;8.904;2023-06-14T17:00:42;96133.56;;;22.60;29.78
79127;BME280;68528;48.814;8.904;2023-06-14T17:03:12;96142.03;;;22.44;30.43
79127;BME280;68528;48.814;8.904;2023-06-14T17:06:25;96114.47;;;22.46;30.18
79127;BME280;68528;48.814;8.904;2023-06-14T17:08:52;96148.41;;;22.57;31.18
79127;BME280;68528;48.814;8.904;2023-06-14T17:11:20;96128.31;;;22.49;30.83
79127;BME280;68528;48.814;8.904;2023-06-14T17:13:48;96101.09;;;22.03;30.95
79127;BME280;68528;48.814;8.904;2023-06-14T17:16:22;96154.34;;;22.59;31.45
79127;BME280;68528;48.814;8.904;2023-06-14T17:18:50;96140.94;;;22.29;31.32
79127;BME280;68528;48.814;8.904;2023-06-14T17:21:19;96141.59;;;22.33;31.83
79127;BME280;68528;48.814;8.904;2023-06-14T17:24:23;96130.34;;;22.24;32.08
79127;BME280;68528;48.814;8.904;2023-06-14T17:27:35;96161.38;;;22.13;33.43
79127;BME280;68528;48.814;8.904;2023-06-14T17:30:01;96168.94;;;21.71;33.90
79127;BME280;68528;48.814;8.904;2023-06-14T17:32:26;96159.09;;;21.67;34.41
79127;BME280;68528;48.814;8.904;2023-06-14T17:34:52;96153.41;;;21.29;33.94
79127;BME280;68528;48.814;8.904;2023-06-14T17:37:17;96168.03;;;21.33;34.07
79127;BME280;68528;48.814;8.904;2023-06-14T17:40:27;96182.09;;;21.71;33.62
79127;BME280;68528;48.814;8.904;2023-06-14T17:46:09;96163.78;;;21.29;33.67
79127;BME280;68528;48.814;8.904;2023-06-14T17:48:35;96146.09;;;21.06;34.28
79127;BME280;68528;48.814;8.904;2023-06-14T17:51:11;96160.25;;;20.96;34.28
79127;BME280;68528;48.814;8.904;2023-06-14T17:53:40;96142.81;;;20.79;35.64
79127;BME280;68528;48.814;8.904;2023-06-14T17:56:09;96134.03;;;20.65;35.54
79127;BME280;68528;48.814;8.904;2023-06-14T17:58:46;96173.31;;;20.99;37.14
79127;BME280;68528;48.814;8.904;2023-06-14T18:01:13;96178.25;;;20.91;36.25
79127;BME280;68528;48.814;8.904;2023-06-14T18:04:16;96197.31;;;20.93;34.56
79127;BME280;68528;48.814;8.904;2023-06-14T18:06:59;96180.97;;;20.79;34.95
79127;BME280;68528;48.814;8.904;2023-06-14T18:09:35;96186.03;;;20.84;35.67
79127;BME280;68528;48.814;8.904;2023-06-14T18:12:01;96174.03;;;20.71;35.05
79127;BME280;68528;48.814;8.904;2023-06-14T18:14:28;96208.00;;;20.78;35.48
79127;BME280;68528;48.814;8.904;2023-06-14T18:48:33;96200.47;;;19.91;38.64
79127;BME280;68528;48.814;8.904;2023-06-14T18:51:00;96215.88;;;19.76;38.44
79127;BME280;68528;48.814;8.904;2023-06-14T18:53:31;96175.47;;;19.52;38.77
79127;BME280;68528;48.814;8.904;2023-06-14T18:55:58;96196.50;;;19.53;38.76
79127;BME280;68528;48.814;8.904;2023-06-14T18:58:40;96193.63;;;19.37;39.44
79127;BME280;68528;48.814;8.904;2023-06-14T19:01:05;96219.09;;;19.55;38.71
79127;BME280;68528;48.814;8.904;2023-06-14T19:03:31;96225.13;;;19.50;39.20
79127;BME280;68528;48.814;8.904;2023-06-14T19:05:56;96219.34;;;19.41;38.66
79127;BME280;68528;48.814;8.904;2023-06-14T19:08:24;96216.56;;;19.18;39.17
79127;BME280;68528;48.814;8.904;2023-06-14T19:10:50;96240.09;;;19.33;39.07
79127;BME280;68528;48.814;8.904;2023-06-14T19:13:17;96227.31;;;19.16;39.10
79127;BME280;68528;48.814;8.904;2023-06-14T19:15:45;96225.88;;;19.08;39.44
79127;BME280;68528;48.814;8.904;2023-06-14T19:18:14;96233.78;;;19.09;39.63
79127;BME280;68528;48.814;8.904;2023-06-14T19:20:40;96249.78;;;19.02;40.45
79127;BME280;68528;48.814;8.904;2023-06-14T19:23:06;96244.22;;;18.78;40.16
79127;BME280;68528;48.814;8.904;2023-06-14T19:25:31;96230.41;;;18.75;40.43
79127;BME280;68528;48.814;8.904;2023-06-14T19:27:57;96243.38;;;18.58;40.97
79127;BME280;68528;48.814;8.904;2023-06-14T19:30:24;96235.03;;;18.58;40.92
79127;BME280;68528;48.814;8.904;2023-06-14T19:32:50;96249.66;;;18.59;41.62
79127;BME280;68528;48.814;8.904;2023-06-14T19:56:46;96275.84;;;17.64;44.28
79127;BME280;68528;48.814;8.904;2023-06-14T19:59:15;96264.22;;;17.42;44.87
79127;BME280;68528;48.814;8.904;2023-06-14T20:01:45;96273.25;;;17.50;45.33
79127;BME280;68528;48.814;8.904;2023-06-14T20:04:10;96298.53;;;17.52;46.08
79127;BME280;68528;48.814;8.904;2023-06-14T20:06:39;96289.78;;;17.57;46.66
79127;BME280;68528;48.814;8.904;2023-06-14T20:12:49;96258.53;;;17.15;45.93
79127;BME280;68528;48.814;8.904;2023-06-14T20:15:16;96310.09;;;17.40;45.82
79127;BME280;68528;48.814;8.904;2023-06-14T20:17:43;96294.69;;;17.39;45.15
79127;BME280;68528;48.814;8.904;2023-06-14T20:20:10;96293.59;;;17.29;45.13
79127;BME280;68528;48.814;8.904;2023-06-14T20:22:37;96302.59;;;17.37;45.71
79127;BME280;68528;48.814;8.904;2023-06-14T20:25:07;96301.91;;;17.25;45.25
79127;BME280;68528;48.814;8.904;2023-06-14T20:27:36;96305.94;;;17.17;45.67
79127;BME280;68528;48.814;8.904;2023-06-14T20:30:26;96305.84;;;17.28;45.25
79127;BME280;68528;48.814;8.904;2023-06-14T20:33:14;96283.91;;;17.10;45.56
79127;BME280;68528;48.814;8.904;2023-06-14T20:35:40;96281.97;;;17.00;45.57
79127;BME280;68528;48.814;8.904;2023-06-14T20:38:07;96261.84;;;17.00;44.66
79127;BME280;68528;48.814;8.904;2023-06-14T20:40:36;96307.34;;;17.36;44.40
79127;BME280;68528;48.814;8.904;2023-06-14T20:43:02;96310.47;;;17.42;44.47
79127;BME280;68528;48.814;8.904;2023-06-14T20:45:31;96279.34;;;17.31;44.70
79127;BME280;68528;48.814;8.904;2023-06-14T20:48:00;96315.16;;;17.52;45.39
79127;BME280;68528;48.814;8.904;2023-06-14T20:50:46;96304.91;;;17.45;45.11
79127;BME280;68528;48.814;8.904;2023-06-14T20:53:12;96308.56;;;17.35;44.96
79127;BME280;68528;48.814;8.904;2023-06-14T20:55:39;96302.53;;;17.44;45.96
79127;BME280;68528;48.814;8.904;2023-06-14T20:58:06;96304.19;;;17.38;46.05
79127;BME280;68528;48.814;8.904;2023-06-14T21:00:32;96261.84;;;17.00;45.87
79127;BME280;68528;48.814;8.904;2023-06-14T21:03:23;96287.59;;;17.34;45.82
79127;BME280;68528;48.814;8.904;2023-06-14T21:06:29;96316.38;;;17.44;45.73
79127;BME280;68528;48.814;8.904;2023-06-14T21:09:02;96318.47;;;17.33;45.47
79127;BME280;68528;48.814;8.904;2023-06-14T21:11:28;96308.16;;;17.37;46.44
79127;BME280;68528;48.814;8.904;2023-06-14T21:13:55;96287.78;;;17.16;46.78
79127;BME280;68528;48.814;8.904;2023-06-14T21:16:23;96280.16;;;16.87;47.46
79127;BME280;68528;48.814;8.904;2023-06-14T21:18:50;96309.25;;;17.02;48.15
79127;BME280;68528;48.814;8.904;2023-06-14T21:21:17;96295.31;;;16.65;48.58
79127;BME280;68528;48.814;8.904;2023-06-14T21:23:53;96304.09;;;16.49;49.12
79127;BME280;68528;48.814;8.904;2023-06-14T21:26:25;96310.06;;;16.37;50.02
79127;BME280;68528;48.814;8.904;2023-06-14T21:28:53;96305.38;;;16.27;50.52
79127;BME280;68528;48.814;8.904;2023-06-14T21:31:19;96297.13;;;16.20;50.18
79127;BME280;68528;48.814;8.904;2023-06-14T21:33:44;96311.00;;;16.13;50.68
79127;BME280;68528;48.814;8.904;2023-06-14T21:36:10;96282.31;;;15.86;50.68
79127;BME280;68528;48.814;8.904;2023-06-14T21:38:36;96297.28;;;15.88;50.71
79127;BME280;68528;48.814;8.904;2023-06-14T21:41:06;96307.16;;;15.82;51.20
79127;BME280;68528;48.814;8.904;2023-06-14T21:43:55;96302.06;;;15.73;51.78
79127;BME280;68528;48.814;8.904;2023-06-14T21:46:21;96311.97;;;15.71;51.70
79127;BME280;68528;48.814;8.904;2023-06-14T21:48:46;96300.19;;;15.49;52.06
79127;BME280;68528;48.814;8.904;2023-06-14T21:51:12;96301.34;;;15.55;51.75
79127;BME280;68528;48.814;8.904;2023-06-14T21:53:37;96302.91;;;15.56;51.93
79127;BME280;68528;48.814;8.904;2023-06-14T21:56:03;96309.25;;;15.39;52.62
79127;BME280;68528;48.814;8.904;2023-06-14T21:59:06;96306.13;;;15.16;53.11
79127;BME280;68528;48.814;8.904;2023-06-14T22:36:28;96297.66;;;13.96;56.88
79127;BME280;68528;48.814;8.904;2023-06-14T22:39:06;96320.13;;;14.09;57.35
79127;BME280;68528;48.814;8.904;2023-06-14T22:41:35;96323.31;;;14.22;56.67
79127;BME280;68528;48.814;8.904;2023-06-14T22:44:08;96317.84;;;14.25;56.76
79127;BME280;68528;48.814;8.904;2023-06-14T22:46:39;96300.06;;;13.98;57.50
79127;BME280;68528;48.814;8.904;2023-06-14T22:49:05;96286.63;;;13.79;57.95
79127;BME280;68528;48.814;8.904;2023-06-14T22:51:31;96298.34;;;13.69;58.65
79127;BME280;68528;48.814;8.904;2023-06-14T22:54:23;96289.69;;;13.63;58.62
79127;BME280;68528;48.814;8.904;2023-06-14T22:57:28;96291.63;;;13.59;58.03
79127;BME280;68528;48.814;8.904;2023-06-14T23:00:19;96299.47;;;13.54;58.64
79127;BME280;68528;48.814;8.904;2023-06-14T23:02:45;96286.03;;;13.38;58.99
79127;BME280;68528;48.814;8.904;2023-06-14T23:05:11;96259.19;;;13.17;58.96
79127;BME280;68528;48.814;8.904;2023-06-14T23:07:37;96250.47;;;13.05;59.47
79127;BME280;68528;48.814;8.904;2023-06-14T23:10:03;96317.75;;;13.25;59.56
79127;BME280;68528;48.814;8.904;2023-06-14T23:13:02;96313.88;;;13.33;59.75
79127;BME280;68528;48.814;8.904;2023-06-14T23:15:53;96277.97;;;13.05;60.17
79127;BME280;68528;48.814;8.904;2023-06-14T23:18:19;96289.91;;;13.33;59.84
79127;BME280;68528;48.814;8.904;2023-06-14T23:20:48;96305.91;;;13.14;60.42
79127;BME280;68528;48.814;8.904;2023-06-14T23:23:13;96311.78;;;13.09;60.72